Terminal Aerodrome Forecast
Issued by NWS

Home | Current Version | Previous Version | Text Only | Print | Product List | Glossary On
Versions: 1 2 3 4 5 6 7 8 9 10 11 12 13 14 15 16 17 18 19
000
FTUS44 KBMX 190839 AAA
TAFANB
TAF AMD
KANB 190839Z 1909/2006 08005KT P6SM -RA SCT020 BKN035
      TEMPO 1909/1913 3SM -SHRA BKN010 OVC015
     FM191400 17008KT P6SM OVC007
     FM191700 22009KT P6SM OVC015
     FM192000 23009KT P6SM SCT050 OVC250=

USA.gov is the U.S. government's official web portal to all federal, state and local government web resources and services.